createdAt,value
2022-11-27T00:01:36.773Z,75.80
2022-11-27T00:04:07.613Z,75.70
2022-11-27T00:06:36.076Z,75.80
2022-11-27T00:09:07.168Z,75.80
2022-11-27T00:11:35.034Z,76.00
2022-11-27T00:14:02.377Z,76.10
2022-11-27T00:16:29.851Z,76.00
2022-11-27T00:18:57.547Z,76.00
2022-11-27T00:21:30.341Z,75.90
2022-11-27T00:23:59.525Z,76.00
2022-11-27T00:26:27.735Z,75.90
2022-11-27T00:28:55.255Z,76.00
2022-11-27T00:31:29.380Z,75.90
2022-11-27T00:34:01.528Z,76.00
2022-11-27T00:36:30.374Z,76.70
2022-11-27T00:38:57.646Z,76.20
2022-11-27T00:41:29.303Z,76.20
2022-11-27T00:43:56.806Z,76.10
2022-11-27T00:46:28.744Z,76.20
2022-11-27T00:49:01.562Z,76.30
2022-11-27T00:51:30.073Z,76.40
2022-11-27T00:53:58.125Z,76.40
2022-11-27T00:56:32.565Z,76.50
2022-11-27T00:59:00.734Z,76.70
2022-11-27T01:01:33.883Z,76.60
2022-11-27T01:04:05.451Z,76.60
2022-11-27T01:06:33.042Z,76.60
2022-11-27T01:09:02.701Z,76.60
2022-11-27T01:11:33.846Z,76.10
2022-11-27T01:14:19.375Z,75.90
2022-11-27T01:16:46.901Z,75.70
2022-11-27T01:19:16.879Z,75.60
2022-11-27T01:21:44.916Z,75.80
2022-11-27T01:24:15.698Z,75.80
2022-11-27T01:26:43.656Z,76.00
2022-11-27T01:29:11.850Z,76.00
2022-11-27T01:31:39.383Z,76.00
2022-11-27T01:34:13.367Z,75.80
2022-11-27T01:36:43.371Z,75.60
2022-11-27T01:39:15.981Z,75.90
2022-11-27T01:41:46.976Z,76.00
2022-11-27T01:44:23.577Z,75.90
2022-11-27T01:47:25.570Z,75.60
2022-11-27T01:49:56.637Z,75.80
2022-11-27T01:52:32.337Z,75.70
2022-11-27T01:55:05.509Z,75.70
2022-11-27T01:57:42.730Z,75.90
2022-11-27T02:00:14.170Z,75.60
2022-11-27T02:02:42.883Z,75.70
2022-11-27T02:05:14.785Z,75.80
2022-11-27T02:07:42.183Z,75.90
2022-11-27T02:10:09.861Z,76.10
2022-11-27T02:12:48.109Z,76.20
2022-11-27T02:15:33.583Z,76.30
2022-11-27T02:18:18.570Z,76.30
2022-11-27T02:21:02.840Z,76.30
2022-11-27T02:23:57.413Z,76.50
2022-11-27T02:26:46.608Z,76.50
2022-11-27T02:29:16.142Z,76.50
2022-11-27T02:31:43.415Z,76.60
2022-11-27T02:34:22.655Z,76.70
2022-11-27T02:37:00.403Z,76.70
2022-11-27T02:40:03.401Z,76.70
2022-11-27T02:42:36.328Z,76.80
2022-11-27T02:45:17.077Z,76.60
2022-11-27T02:47:47.389Z,76.50
2022-11-27T02:50:20.881Z,76.50
2022-11-27T02:52:54.362Z,76.20
2022-11-27T02:55:28.857Z,76.00
2022-11-27T02:57:57.212Z,76.00
2022-11-27T03:00:24.710Z,76.10
2022-11-27T03:03:04.640Z,75.90
2022-11-27T03:05:38.531Z,75.60
2022-11-27T03:08:21.559Z,75.60
2022-11-27T03:11:05.044Z,75.60
2022-11-27T03:13:40.692Z,75.20
2022-11-27T03:16:15.126Z,75.20
2022-11-27T03:19:07.971Z,75.00
2022-11-27T03:21:41.167Z,74.70
2022-11-27T03:24:10.042Z,74.40
2022-11-27T03:26:39.183Z,74.40
2022-11-27T03:29:12.249Z,74.40
2022-11-27T03:31:42.660Z,74.30
2022-11-27T03:34:10.551Z,74.20
2022-11-27T03:36:37.808Z,74.10
2022-11-27T03:39:05.404Z,74.00
2022-11-27T03:42:09.922Z,74.10
2022-11-27T03:45:04.722Z,73.60
2022-11-27T03:47:58.935Z,73.80
2022-11-27T03:50:41.149Z,73.60
2022-11-27T03:53:17.367Z,73.70
2022-11-27T03:55:55.834Z,73.90
2022-11-27T03:58:50.348Z,73.90
2022-11-27T04:01:19.791Z,74.20
2022-11-27T04:03:47.112Z,73.40
2022-11-27T04:06:14.504Z,73.50
2022-11-27T04:08:42.533Z,73.50
2022-11-27T04:11:09.801Z,73.70
2022-11-27T04:13:37.192Z,73.30
2022-11-27T04:16:04.905Z,72.90
2022-11-27T04:18:34.320Z,72.60
2022-11-27T04:21:01.640Z,72.70
2022-11-27T04:23:28.888Z,72.40
2022-11-27T04:25:58.658Z,72.60
2022-11-27T04:28:25.946Z,72.70
2022-11-27T04:30:54.932Z,72.50
2022-11-27T04:33:23.040Z,72.20
2022-11-27T04:35:56.107Z,72.70
2022-11-27T04:38:23.404Z,73.00
2022-11-27T04:40:53.487Z,73.20
2022-11-27T04:43:23.462Z,73.20
2022-11-27T04:45:50.735Z,73.00
2022-11-27T04:48:18.033Z,73.10
2022-11-27T04:50:45.797Z,73.00
2022-11-27T04:53:13.177Z,73.20
2022-11-27T04:55:40.437Z,73.30
2022-11-27T04:58:07.714Z,73.30
2022-11-27T05:00:35.068Z,73.00
2022-11-27T05:03:02.413Z,73.00
2022-11-27T05:05:29.789Z,73.10
2022-11-27T05:07:57.180Z,72.90
2022-11-27T05:10:27.171Z,72.40
2022-11-27T05:12:56.812Z,72.10
2022-11-27T05:15:26.521Z,72.00
2022-11-27T05:17:53.787Z,72.10
2022-11-27T05:20:21.016Z,72.40
2022-11-27T05:22:50.442Z,72.30
2022-11-27T05:25:20.316Z,72.50
2022-11-27T05:27:52.129Z,72.70
2022-11-27T05:30:19.781Z,72.80
2022-11-27T05:32:46.927Z,72.70
2022-11-27T05:35:14.256Z,72.80
2022-11-27T05:37:44.445Z,72.80
2022-11-27T05:40:12.046Z,72.50
2022-11-27T05:42:39.286Z,72.90
2022-11-27T05:45:09.765Z,73.20
2022-11-27T05:47:37.076Z,73.50
2022-11-27T05:50:04.798Z,74.00
2022-11-27T05:52:32.091Z,73.50
2022-11-27T05:55:02.314Z,73.30
2022-11-27T05:57:31.009Z,73.40
2022-11-27T05:59:59.131Z,74.30
2022-11-27T06:02:29.569Z,73.80
2022-11-27T06:04:57.063Z,73.70
2022-11-27T06:07:24.399Z,73.60
2022-11-27T06:09:51.822Z,73.60
2022-11-27T06:12:19.139Z,73.50
2022-11-27T06:14:48.986Z,73.60
2022-11-27T06:17:16.612Z,73.30
2022-11-27T06:19:43.910Z,73.10
2022-11-27T06:22:11.251Z,73.20
2022-11-27T06:24:38.743Z,73.30
2022-11-27T06:27:06.324Z,73.30
2022-11-27T06:29:33.595Z,73.30
2022-11-27T06:32:00.877Z,73.40
2022-11-27T06:34:28.317Z,73.40
2022-11-27T06:36:55.633Z,73.50
2022-11-27T06:39:22.889Z,73.50
2022-11-27T06:41:50.170Z,73.30
2022-11-27T06:44:17.423Z,73.40
2022-11-27T06:46:46.852Z,73.40
2022-11-27T06:49:16.533Z,73.40
2022-11-27T06:51:43.795Z,73.30
2022-11-27T06:54:11.077Z,73.40
2022-11-27T06:56:40.580Z,73.30
2022-11-27T06:59:09.979Z,73.20
2022-11-27T07:01:37.378Z,73.40
2022-11-27T07:04:04.894Z,73.50
2022-11-27T07:06:32.286Z,73.50
2022-11-27T07:08:59.562Z,73.50
2022-11-27T07:11:29.809Z,73.50
2022-11-27T07:13:59.261Z,73.60
2022-11-27T07:16:28.504Z,73.50
2022-11-27T07:19:07.030Z,73.70
2022-11-27T07:21:38.686Z,73.80
2022-11-27T07:24:06.540Z,73.80
2022-11-27T07:26:34.030Z,73.80
2022-11-27T07:29:01.441Z,73.90
2022-11-27T07:31:30.659Z,73.90
2022-11-27T07:33:58.785Z,74.10
2022-11-27T07:36:29.266Z,74.20
2022-11-27T07:38:58.747Z,74.20
2022-11-27T07:41:32.309Z,74.20
2022-11-27T07:44:01.332Z,74.40
2022-11-27T07:46:30.193Z,74.40
2022-11-27T07:48:58.172Z,74.40
2022-11-27T07:51:25.419Z,74.50
2022-11-27T07:53:55.225Z,74.60
2022-11-27T07:56:23.044Z,74.60
2022-11-27T07:58:50.507Z,74.70
2022-11-27T08:01:19.243Z,74.70
2022-11-27T08:03:47.128Z,74.80
2022-11-27T08:06:20.543Z,74.80
2022-11-27T08:08:48.249Z,74.80
2022-11-27T08:11:24.421Z,74.70
2022-11-27T08:13:57.718Z,74.60
2022-11-27T08:16:25.238Z,74.70
2022-11-27T08:18:52.844Z,74.70
2022-11-27T08:21:20.623Z,74.80
2022-11-27T08:23:48.216Z,74.80
2022-11-27T08:26:17.784Z,74.80
2022-11-27T08:28:45.239Z,74.50
2022-11-27T08:31:14.005Z,74.70
2022-11-27T08:33:41.767Z,74.60
2022-11-27T08:36:13.716Z,74.60
2022-11-27T08:38:48.003Z,74.70
2022-11-27T08:41:17.529Z,74.80
2022-11-27T08:43:45.107Z,74.80
2022-11-27T08:46:12.544Z,75.00
2022-11-27T08:48:42.561Z,75.10
2022-11-27T08:51:15.245Z,75.10
2022-11-27T08:53:45.457Z,75.00
2022-11-27T08:56:15.241Z,75.00
2022-11-27T08:58:43.501Z,75.00
2022-11-27T09:01:32.069Z,75.10
2022-11-27T09:04:01.986Z,75.00
2022-11-27T09:06:31.703Z,75.00
2022-11-27T09:09:03.879Z,74.80
2022-11-27T09:11:32.358Z,74.70
2022-11-27T09:14:00.781Z,74.70
2022-11-27T09:16:30.747Z,74.30
2022-11-27T09:18:58.824Z,73.90
2022-11-27T09:21:29.126Z,73.90
2022-11-27T09:24:00.854Z,74.10
2022-11-27T09:26:28.966Z,74.10
2022-11-27T09:28:58.334Z,74.10
2022-11-27T09:31:28.085Z,74.10
2022-11-27T09:33:55.458Z,74.20
2022-11-27T09:36:25.068Z,74.10
2022-11-27T09:38:56.075Z,73.90
2022-11-27T09:41:39.381Z,73.70
2022-11-27T09:44:23.554Z,73.20
2022-11-27T09:47:00.986Z,73.30
2022-11-27T09:49:35.517Z,73.50
2022-11-27T09:52:10.985Z,73.60
2022-11-27T09:54:47.992Z,73.70
2022-11-27T09:57:25.651Z,73.80
2022-11-27T09:59:54.768Z,73.80
2022-11-27T10:02:30.935Z,73.80
2022-11-27T10:05:15.843Z,73.90
2022-11-27T10:07:46.338Z,74.00
2022-11-27T10:10:34.624Z,73.70
2022-11-27T10:13:16.623Z,73.00
2022-11-27T10:16:04.935Z,73.10
2022-11-27T10:18:46.609Z,73.30
2022-11-27T10:21:44.798Z,72.90
2022-11-27T10:24:36.744Z,72.80
2022-11-27T10:27:17.811Z,73.20
2022-11-27T10:29:55.235Z,73.20
2022-11-27T10:32:54.185Z,72.90
2022-11-27T10:35:28.865Z,73.00
2022-11-27T10:38:10.496Z,72.70
2022-11-27T10:44:19.387Z,72.40
2022-11-27T10:46:48.588Z,72.60
2022-11-27T10:49:15.894Z,72.20
2022-11-27T10:51:45.990Z,72.40
2022-11-27T10:54:27.078Z,72.30
2022-11-27T10:57:17.348Z,72.10
2022-11-27T10:59:54.686Z,71.90
2022-11-27T11:02:28.366Z,72.00
2022-11-27T11:05:30.767Z,72.10
2022-11-27T11:08:01.123Z,72.40
2022-11-27T11:10:33.446Z,72.30
2022-11-27T11:13:27.982Z,72.50
2022-11-27T11:15:59.959Z,72.30
2022-11-27T11:18:30.227Z,71.90
2022-11-27T11:21:07.145Z,71.90
2022-11-27T11:23:40.387Z,71.80
2022-11-27T11:26:13.717Z,72.10
2022-11-27T11:28:52.316Z,72.00
2022-11-27T11:31:25.333Z,72.30
2022-11-27T11:34:05.051Z,72.10
2022-11-27T11:36:32.602Z,72.00
2022-11-27T11:39:00.173Z,72.10
2022-11-27T11:41:39.549Z,72.30
2022-11-27T11:44:20.289Z,71.80
2022-11-27T11:46:55.384Z,72.00
2022-11-27T11:49:25.867Z,72.00
2022-11-27T11:52:21.911Z,72.10
2022-11-27T11:55:20.018Z,72.00
2022-11-27T11:58:22.204Z,71.50
2022-11-27T12:01:19.224Z,71.60
2022-11-27T12:03:41.813Z,72.00
2022-11-27T12:06:29.102Z,71.70
2022-11-27T12:09:08.585Z,71.40
2022-11-27T12:12:16.030Z,71.60
2022-11-27T12:15:05.793Z,71.70
2022-11-27T12:17:51.326Z,71.80
2022-11-27T12:20:35.275Z,71.40
2022-11-27T12:23:08.527Z,71.60
2022-11-27T12:25:52.423Z,71.70
2022-11-27T12:28:40.931Z,71.90
2022-11-27T12:31:29.386Z,72.30
2022-11-27T12:34:05.863Z,72.40
2022-11-27T12:36:55.234Z,72.10
2022-11-27T12:39:28.454Z,72.00
2022-11-27T12:42:08.957Z,72.30
2022-11-27T12:44:47.314Z,72.30
2022-11-27T12:47:26.840Z,72.20
2022-11-27T12:50:07.835Z,72.20
2022-11-27T12:52:44.565Z,72.00
2022-11-27T12:55:17.285Z,71.70
2022-11-27T12:58:05.822Z,72.00
2022-11-27T13:00:37.330Z,72.20
2022-11-27T13:03:13.406Z,72.40
2022-11-27T13:05:58.080Z,72.30
2022-11-27T13:09:02.159Z,72.40
2022-11-27T13:11:35.544Z,72.40
2022-11-27T13:14:20.352Z,72.50
2022-11-27T13:16:56.139Z,72.70
2022-11-27T13:19:52.949Z,72.80
2022-11-27T13:22:34.682Z,72.80
2022-11-27T13:25:03.601Z,72.90
2022-11-27T13:27:35.666Z,73.00
2022-11-27T13:30:05.501Z,73.10
2022-11-27T13:32:47.049Z,73.10
2022-11-27T13:35:27.850Z,73.00
2022-11-27T13:38:12.446Z,73.00
2022-11-27T13:40:41.910Z,73.00
2022-11-27T13:43:43.225Z,72.90
2022-11-27T13:46:21.588Z,73.00
2022-11-27T13:48:54.203Z,73.10
2022-11-27T13:51:39.436Z,73.10
2022-11-27T13:54:07.714Z,73.00
2022-11-27T13:56:35.295Z,73.10
2022-11-27T13:59:20.051Z,73.00
2022-11-27T14:02:02.559Z,73.00
2022-11-27T14:04:31.376Z,73.10
2022-11-27T14:07:11.702Z,73.10
2022-11-27T14:09:44.830Z,73.10
2022-11-27T14:12:22.394Z,72.90
2022-11-27T14:15:07.403Z,73.10
2022-11-27T14:17:46.314Z,73.00
2022-11-27T14:20:16.557Z,72.90
2022-11-27T14:23:09.823Z,72.90
2022-11-27T14:25:38.360Z,72.90
2022-11-27T14:28:27.172Z,72.90
2022-11-27T14:31:00.419Z,72.90
2022-11-27T14:33:31.279Z,72.90
2022-11-27T14:36:01.523Z,72.90
2022-11-27T14:38:30.853Z,72.90
2022-11-27T14:41:15.767Z,73.00
2022-11-27T14:43:45.543Z,73.10
2022-11-27T14:46:19.267Z,73.10
2022-11-27T14:48:49.874Z,72.90
2022-11-27T14:51:23.621Z,72.90
2022-11-27T14:53:59.342Z,72.90
2022-11-27T14:56:33.774Z,72.90
2022-11-27T14:59:02.124Z,72.80
2022-11-27T15:01:33.175Z,72.80
2022-11-27T15:04:03.894Z,72.90
2022-11-27T15:06:43.937Z,72.80
2022-11-27T15:09:31.639Z,72.80
2022-11-27T15:12:21.834Z,72.70
2022-11-27T15:15:02.544Z,72.70
2022-11-27T15:17:34.286Z,72.40
2022-11-27T15:20:04.102Z,72.60
2022-11-27T15:22:33.425Z,72.90
2022-11-27T15:25:06.342Z,72.40
2022-11-27T15:27:48.121Z,72.20
2022-11-27T15:30:19.179Z,72.00
2022-11-27T15:32:51.674Z,72.00
2022-11-27T15:35:32.617Z,72.10
2022-11-27T15:38:04.649Z,72.80
2022-11-27T15:40:36.288Z,72.20
2022-11-27T15:43:13.994Z,72.10
2022-11-27T15:45:43.108Z,72.10
2022-11-27T15:48:21.126Z,72.30
2022-11-27T15:50:51.853Z,72.20
2022-11-27T15:53:21.971Z,72.30
2022-11-27T15:55:51.690Z,72.20
2022-11-27T15:58:21.105Z,72.10
2022-11-27T16:00:48.390Z,71.90
2022-11-27T16:03:15.720Z,71.80
2022-11-27T16:05:48.511Z,71.80
2022-11-27T16:08:16.286Z,71.70
2022-11-27T16:10:43.928Z,71.70
2022-11-27T16:13:13.529Z,71.60
2022-11-27T16:15:40.835Z,71.60
2022-11-27T16:18:08.200Z,71.70
2022-11-27T16:20:37.541Z,71.70
2022-11-27T16:23:04.887Z,71.60
2022-11-27T16:25:32.190Z,71.40
2022-11-27T16:28:02.782Z,71.40
2022-11-27T16:30:32.958Z,71.40
2022-11-27T16:33:00.323Z,71.40
2022-11-27T16:35:27.908Z,71.20
2022-11-27T16:37:57.630Z,71.20
2022-11-27T16:40:25.028Z,71.20
2022-11-27T16:42:52.326Z,71.20
2022-11-27T16:45:20.002Z,71.20
2022-11-27T16:47:47.355Z,71.20
2022-11-27T16:50:14.807Z,71.20
2022-11-27T16:52:42.122Z,71.20
2022-11-27T16:55:11.835Z,71.30
2022-11-27T16:57:39.147Z,71.30
2022-11-27T17:00:07.095Z,71.40
2022-11-27T17:02:38.997Z,71.50
2022-11-27T17:05:07.034Z,71.30
2022-11-27T17:07:37.667Z,71.20
2022-11-27T17:10:05.425Z,71.00
2022-11-27T17:12:35.988Z,71.10
2022-11-27T17:15:04.544Z,71.00
2022-11-27T17:17:39.874Z,71.10
2022-11-27T17:20:08.395Z,71.00
2022-11-27T17:22:35.679Z,71.10
2022-11-27T17:25:05.487Z,71.00
2022-11-27T17:27:35.347Z,70.90
2022-11-27T17:30:04.763Z,70.80
2022-11-27T17:32:32.194Z,70.80
2022-11-27T17:34:59.538Z,70.80
2022-11-27T17:37:26.900Z,70.80
2022-11-27T17:39:58.810Z,70.70
2022-11-27T17:42:28.240Z,70.70
2022-11-27T17:44:56.217Z,70.70
2022-11-27T17:47:23.570Z,70.80
2022-11-27T17:49:53.318Z,70.90
2022-11-27T17:52:22.944Z,70.80
2022-11-27T17:54:50.214Z,70.90
2022-11-27T17:57:17.607Z,70.80
2022-11-27T17:59:44.854Z,70.70
2022-11-27T18:02:14.509Z,70.70
2022-11-27T18:04:41.868Z,70.60
2022-11-27T18:07:09.226Z,70.50
2022-11-27T18:09:36.642Z,70.60
2022-11-27T18:12:09.432Z,70.60
2022-11-27T18:14:39.288Z,70.50
2022-11-27T18:17:07.129Z,70.50
2022-11-27T18:19:34.463Z,70.40
2022-11-27T18:22:01.748Z,70.20
2022-11-27T18:24:29.020Z,70.20
2022-11-27T18:27:11.786Z,70.10
2022-11-27T18:29:42.402Z,70.20
2022-11-27T18:32:11.677Z,70.10
2022-11-27T18:34:39.494Z,70.20
2022-11-27T18:37:07.397Z,70.30
2022-11-27T18:39:35.458Z,70.50
2022-11-27T18:42:04.973Z,70.40
2022-11-27T18:44:33.438Z,71.00
2022-11-27T18:47:00.906Z,70.50
2022-11-27T18:49:28.185Z,70.50
2022-11-27T18:51:56.470Z,70.30
2022-11-27T18:54:26.709Z,70.20
2022-11-27T18:56:53.960Z,70.00
2022-11-27T18:59:21.523Z,69.90
2022-11-27T19:01:49.049Z,69.90
2022-11-27T19:04:18.634Z,69.80
2022-11-27T19:06:45.959Z,69.70
2022-11-27T19:09:14.095Z,69.60
2022-11-27T19:11:43.979Z,69.40
2022-11-27T19:14:11.401Z,69.40
2022-11-27T19:16:46.471Z,69.50
2022-11-27T19:22:07.175Z,69.60
2022-11-27T19:24:34.553Z,69.80
2022-11-27T19:27:04.351Z,69.90
2022-11-27T19:29:31.631Z,70.00
2022-11-27T19:32:01.192Z,70.00
2022-11-27T19:34:28.940Z,69.90
2022-11-27T19:36:58.450Z,69.80
2022-11-27T19:39:28.815Z,69.80
2022-11-27T19:41:57.894Z,69.90
2022-11-27T19:44:25.770Z,69.70
2022-11-27T19:46:53.076Z,69.70
2022-11-27T19:49:21.480Z,69.60
2022-11-27T19:51:49.792Z,69.50
2022-11-27T19:54:19.220Z,69.40
2022-11-27T19:56:48.996Z,69.20
2022-11-27T19:59:24.228Z,69.80
2022-11-27T20:01:55.650Z,69.20
2022-11-27T20:04:22.995Z,69.40
2022-11-27T20:06:52.652Z,69.50
2022-11-27T20:09:20.005Z,69.40
2022-11-27T20:11:47.322Z,69.50
2022-11-27T20:14:14.970Z,69.50
2022-11-27T20:16:42.397Z,69.60
2022-11-27T20:19:09.735Z,69.60
2022-11-27T20:21:40.134Z,69.60
2022-11-27T20:24:10.191Z,69.70
2022-11-27T20:26:42.438Z,69.70
2022-11-27T20:29:10.765Z,69.80
2022-11-27T20:31:39.498Z,69.90
2022-11-27T20:34:08.351Z,69.40
2022-11-27T20:36:39.049Z,70.00
2022-11-27T20:39:06.932Z,69.90
2022-11-27T20:41:34.242Z,69.90
2022-11-27T20:44:04.594Z,69.90
2022-11-27T20:46:33.297Z,70.00
2022-11-27T20:49:00.827Z,69.80
2022-11-27T20:51:33.794Z,69.80
2022-11-27T20:54:02.622Z,69.80
2022-11-27T20:56:30.973Z,69.80
2022-11-27T20:59:00.911Z,69.80
2022-11-27T21:01:31.938Z,69.60
2022-11-27T21:04:04.527Z,69.60
2022-11-27T21:06:38.043Z,69.70
2022-11-27T21:09:10.292Z,69.70
2022-11-27T21:11:37.724Z,69.80
2022-11-27T21:14:08.079Z,69.90
2022-11-27T21:16:38.490Z,70.00
2022-11-27T21:19:12.744Z,69.90
2022-11-27T21:21:40.080Z,69.70
2022-11-27T21:24:07.678Z,69.60
2022-11-27T21:26:37.510Z,69.50
2022-11-27T21:29:04.849Z,69.40
2022-11-27T21:31:37.304Z,69.30
2022-11-27T21:34:10.337Z,69.20
2022-11-27T21:36:38.489Z,69.10
2022-11-27T21:39:08.792Z,69.10
2022-11-27T21:41:36.659Z,68.90
2022-11-27T21:44:04.597Z,68.90
2022-11-27T21:46:34.998Z,68.90
2022-11-27T21:49:02.313Z,69.00
2022-11-27T21:51:30.293Z,68.80
2022-11-27T21:53:58.973Z,68.80
2022-11-27T21:56:28.690Z,68.60
2022-11-27T21:58:56.431Z,68.60
2022-11-27T22:01:25.007Z,68.60
2022-11-27T22:03:54.714Z,68.60
2022-11-27T22:06:24.734Z,68.60
2022-11-27T22:08:53.986Z,68.60
2022-11-27T22:11:26.759Z,68.80
2022-11-27T22:14:06.065Z,68.70
2022-11-27T22:16:40.008Z,68.70
2022-11-27T22:19:11.939Z,68.70
2022-11-27T22:21:41.426Z,68.60
2022-11-27T22:24:17.957Z,68.50
2022-11-27T22:26:46.212Z,68.60
2022-11-27T22:29:13.476Z,68.70
2022-11-27T22:31:40.767Z,68.70
2022-11-27T22:34:08.173Z,68.70
2022-11-27T22:36:35.722Z,68.70
2022-11-27T22:39:08.862Z,68.60
2022-11-27T22:41:38.935Z,68.40
2022-11-27T22:44:14.465Z,68.40
2022-11-27T22:46:42.533Z,68.20
2022-11-27T22:49:11.724Z,68.10
2022-11-27T22:51:42.962Z,68.00
2022-11-27T22:54:25.392Z,68.40
2022-11-27T22:56:52.878Z,68.00
2022-11-27T22:59:37.865Z,67.90
2022-11-27T23:02:05.850Z,67.90
2022-11-27T23:04:34.423Z,67.80
2022-11-27T23:07:01.754Z,67.70
2022-11-27T23:09:31.780Z,67.90
2022-11-27T23:12:01.314Z,68.00
2022-11-27T23:14:28.695Z,68.00
2022-11-27T23:16:56.079Z,67.90
2022-11-27T23:19:25.937Z,68.00
2022-11-27T23:21:55.381Z,67.90
2022-11-27T23:24:23.037Z,68.00
2022-11-27T23:26:52.782Z,68.00
2022-11-27T23:29:20.148Z,68.10
2022-11-27T23:31:47.515Z,68.30
2022-11-27T23:34:15.996Z,68.30
2022-11-27T23:36:43.512Z,68.30
2022-11-27T23:39:16.924Z,68.20
2022-11-27T23:41:44.422Z,68.10
2022-11-27T23:44:11.785Z,68.30
2022-11-27T23:46:39.139Z,68.40
2022-11-27T23:49:06.445Z,68.50
2022-11-27T23:51:34.055Z,68.70
2022-11-27T23:54:01.722Z,68.70
2022-11-27T23:56:34.959Z,68.70
2022-11-27T23:59:05.519Z,68.70
